Aeroporto :
LOGIN :

Iscrizione | Disclaimer

   EN    FR    IT 

 










Sommario :    VFR   VFR Marginale   IFR   IFR Intensivo   IFR Molto Intensivo
Visibilità : 
Base nubi : 
>= 8 km
>= 3000ft
5 / 8 km
1000 / 3000 ft
1500m / 5 km
500 / 1000 ft
800 / 1500m
200 / 500 ft
< 800m
< 200 ft
Simboli :   Temporali  Nebbia  Neve Forte  Precipitazioni Forti  Vento > 20 kt
SIGMETs :   Varie  Temporali  Ghiacco  Turbolenza  Onda orograficha  Ceneri Vulcaniche







- Altitudine del aeroporto : 41 ft


LIRE - Pratica di Mare Air Base Pomezia

ULTIMO METAR :
  • 210455Z 10008KT 9999 FEW040 23/22 Q1013 RMK FEW VIS MIN 9999 WIND THR13 12008KT WIND THR31 11007KT BLU

METARs OBSOLETI :
  • 210355Z 09007KT CAVOK 23/22 Q1013 RMK SKC VIS MIN 9999 WIND THR13 11007KT WIND THR31 09007KT BLU
  • 210255Z 10008KT CAVOK 23/22 Q1013 RMK SKC VIS MIN 9999 WIND THR13 12006KT WIND THR31 10007KT BLU

TAF TAF LIRE
Valido dal 21 a 06 ore il 21 a 15 ore UTC


210500Z 2106/2115 14010KT 9999 SCT040
Nessun NOTAM noto per questo aeroporto.



MetMap, La meteo Aeronautica in un colpo d'occhio ! - Copyright ORBIFLY Dicembre 2007 - Disclaimer

ORBIFLY MET'MAP TEAM :

Programmazione e sviluppo : Alexandra Zaïnal
Concezione e sviluppo : Baudouin d'Aumeries
Co-Programmazione e sviluppo : Marc-Olivier Méhu
Supporto tecnico e logistico : Manuel Goepfert
Aiuto per la traduzione : Arnaldo La Scala

Contatto : metmap@orbifly.com




FONTI E CREDITI :

   NOAA